Time;durP1;ratioP1;P1;durP2;ratioP2;P2;SDS_P1;SDS_P2;PMS_P1;PMS_P2;Temp;Humidity;BMP_temperature;BMP_pressure;BME280_temperature;BME280_humidity;BME280_pressure;Samples;Min_cycle;Max_cycle;Signal;HPM_P1;HPM_P2
2022/08/04 00:00:47;;;;;;;0.90;0.90;;;16.90;1.40;;;18.28;100.00;95370.88;646065;216;42179;-70
2022/08/04 00:03:28;;;;;;;1.65;1.15;;;16.80;1.40;;;18.18;100.00;95368.91;646271;212;31496;-70
2022/08/04 00:06:27;;;;;;;1.30;1.12;;;16.50;1.40;;;18.11;100.00;95365.68;618461;226;31807;-70
2022/08/04 00:09:13;;;;;;;2.33;1.30;;;16.30;1.40;;;18.04;100.00;95365.18;645408;216;31566;-70
2022/08/04 00:11:55;;;;;;;1.30;1.10;;;16.30;1.40;;;18.01;100.00;95372.02;619186;222;32337;-71
2022/08/04 00:14:36;;;;;;;2.40;1.30;;;16.20;1.40;;;18.06;100.00;95369.17;644471;216;31642;-71
2022/08/04 00:17:19;;;;;;;1.20;1.00;;;16.20;1.40;;;18.01;100.00;95371.61;646460;212;31613;-71
2022/08/04 00:20:01;;;;;;;2.40;0.80;;;16.20;1.40;;;17.92;100.00;95370.52;646768;216;31507;-71
2022/08/04 00:22:45;;;;;;;1.27;1.00;;;16.10;1.40;;;17.87;100.00;95368.78;646735;216;32026;-71
2022/08/04 00:25:27;;;;;;;1.15;1.05;;;16.10;1.40;;;17.89;100.00;95366.11;645860;216;31526;-70
2022/08/04 00:28:09;;;;;;;1.08;0.80;;;16.20;1.40;;;17.85;100.00;95369.97;646746;212;31629;-70
2022/08/04 00:30:51;;;;;;;0.57;0.57;;;16.30;1.40;;;17.84;100.00;95366.98;645722;216;31898;-71
2022/08/04 00:35:51;;;;;;;2.15;1.50;;;16.00;1.40;;;17.55;100.00;95359.48;646620;212;42513;-70
2022/08/04 00:38:33;;;;;;;1.45;1.35;;;15.90;1.40;;;17.49;100.00;95359.59;646559;216;31525;-70
2022/08/04 00:41:25;;;;;;;1.30;0.90;;;15.90;1.40;;;17.50;100.00;95365.09;618356;225;31907;-69
2022/08/04 00:44:34;;;;;;;1.80;1.10;;;15.90;1.40;;;17.46;100.00;95361.44;647024;212;31486;-69
2022/08/04 00:47:44;;;;;;;0.95;0.80;;;15.90;1.40;;;17.48;100.00;95359.09;647726;212;31612;-70
2022/08/04 00:50:40;;;;;;;0.60;0.60;;;15.80;1.40;;;17.44;100.00;95361.27;644995;215;31476;-70
2022/08/04 00:53:40;;;;;;;4.10;1.37;;;15.70;1.40;;;17.38;100.00;95361.66;646844;216;31828;-70
2022/08/04 00:56:29;;;;;;;0.80;0.60;;;15.80;1.40;;;17.38;100.00;95364.33;644757;216;32221;-69
2022/08/04 00:59:48;;;;;;;0.80;0.70;;;15.70;1.40;;;17.36;100.00;95364.23;647277;216;31602;-70
2022/08/04 01:02:37;;;;;;;1.80;1.00;;;15.60;1.40;;;17.26;100.00;95364.08;647057;216;31548;-70
2022/08/04 01:05:36;;;;;;;1.10;0.80;;;15.50;1.40;;;17.35;100.00;95366.16;647214;216;31517;-70
2022/08/04 01:08:23;;;;;;;1.20;1.00;;;15.60;1.40;;;17.32;100.00;95360.31;646185;216;31619;-69
2022/08/04 01:11:13;;;;;;;0.88;0.85;;;15.50;1.40;;;17.22;100.00;95363.24;646178;216;32025;-70
2022/08/04 01:14:17;;;;;;;0.90;0.90;;;15.50;1.40;;;17.15;100.00;95356.88;645769;216;31944;-69
2022/08/04 01:17:25;;;;;;;0.90;0.70;;;15.40;1.40;;;17.12;100.00;95359.37;645718;216;42121;-70
2022/08/04 01:20:09;;;;;;;0.90;0.90;;;15.30;1.40;;;17.07;100.00;95361.16;645530;216;31494;-70
2022/08/04 01:23:09;;;;;;;0.62;0.62;;;15.30;1.40;;;17.06;100.00;95358.91;620691;226;31842;-70
2022/08/04 01:26:13;;;;;;;1.23;0.90;;;15.20;1.40;;;17.06;100.00;95359.14;618720;222;31954;-70
2022/08/04 01:29:08;;;;;;;0.90;0.90;;;15.20;1.40;;;16.91;100.00;95364.21;645380;212;31494;-70
2022/08/04 01:32:01;;;;;;;0.93;0.90;;;15.20;1.40;;;16.89;100.00;95367.70;646710;212;32136;-70
2022/08/04 01:35:54;;;;;;;0.90;0.88;;;15.10;1.40;;;16.75;100.00;95366.99;646293;212;32146;-70
2022/08/04 01:38:36;;;;;;;1.27;1.17;;;15.00;1.40;;;16.60;100.00;95360.47;646244;216;31512;-70
2022/08/04 01:41:18;;;;;;;0.73;0.70;;;14.90;1.40;;;16.54;100.00;95362.94;646064;216;31507;-70
2022/08/04 01:43:59;;;;;;;1.08;0.88;;;14.80;1.40;;;16.48;100.00;95362.61;645816;216;31520;-70
2022/08/04 01:46:41;;;;;;;0.70;0.70;;;14.70;1.40;;;16.40;100.00;95361.86;647721;212;31729;-70
2022/08/04 01:49:23;;;;;;;2.10;1.20;;;14.60;1.40;;;16.48;100.00;95363.39;646047;216;31556;-70
2022/08/04 01:52:07;;;;;;;1.17;0.90;;;14.80;1.40;;;16.42;100.00;95361.95;646797;216;31496;-70
2022/08/04 01:54:49;;;;;;;1.15;1.05;;;14.70;1.40;;;16.33;100.00;95364.52;646198;216;31608;-71
2022/08/04 01:57:33;;;;;;;1.23;1.12;;;14.60;1.40;;;16.21;100.00;95360.64;646529;216;31560;-70
2022/08/04 02:00:16;;;;;;;0.90;0.80;;;14.50;1.40;;;16.26;100.00;95362.16;644576;216;31928;-71
2022/08/04 02:02:57;;;;;;;0.60;0.60;;;14.60;1.40;;;16.17;100.00;95358.33;646198;216;31512;-70
2022/08/04 02:05:39;;;;;;;0.80;0.80;;;14.60;1.40;;;16.09;100.00;95357.80;645717;216;32116;-71
2022/08/04 02:08:21;;;;;;;1.10;0.80;;;14.40;1.40;;;15.97;100.00;95363.00;646969;216;31541;-70
2022/08/04 02:11:04;;;;;;;1.75;0.50;;;14.30;1.40;;;15.89;100.00;95361.28;646208;212;31587;-71
2022/08/04 02:14:39;;;;;;;0.85;0.75;;;14.20;1.40;;;15.84;100.00;95360.13;645890;212;32104;-72
2022/08/04 02:16:57;;;;;;;1.20;1.00;;;14.20;1.40;;;15.87;100.00;95360.69;646216;212;31524;-72
2022/08/04 02:22:17;;;;;;;1.17;0.70;;;14.10;1.40;;;15.71;100.00;95365.78;618636;226;31949;-73
2022/08/04 02:25:03;;;;;;;0.80;0.80;;;14.10;1.40;;;15.66;100.00;95365.73;647799;216;31506;-70
2022/08/04 02:28:04;;;;;;;1.00;0.70;;;14.00;1.40;;;15.67;100.00;95366.72;645909;216;31541;-70
2022/08/04 02:31:05;;;;;;;1.58;0.60;;;14.00;1.40;;;15.71;100.00;95368.38;646056;213;31496;-70
2022/08/04 02:35:51;;;;;;;1.30;0.75;;;14.10;1.40;;;15.71;100.00;95363.70;646067;212;31582;-71
2022/08/04 02:38:42;;;;;;;2.30;1.30;;;14.20;1.40;;;15.78;100.00;95359.38;646279;212;32064;-72
2022/08/04 02:41:27;;;;;;;1.10;1.00;;;14.40;1.40;;;15.90;100.00;95363.17;645004;216;31525;-70
2022/08/04 02:44:09;;;;;;;0.80;0.80;;;14.30;1.40;;;15.95;100.00;95363.55;642021;218;32070;-69
2022/08/04 02:46:52;;;;;;;0.90;0.90;;;14.30;1.40;;;15.83;100.00;95361.95;647305;216;42096;-69
2022/08/04 02:49:36;;;;;;;1.02;0.90;;;14.20;1.40;;;15.78;100.00;95361.64;619249;226;32388;-69
2022/08/04 02:52:18;;;;;;;0.60;0.50;;;14.20;1.40;;;15.70;100.00;95356.27;646803;212;31561;-69
2022/08/04 02:55:00;;;;;;;1.33;0.90;;;14.20;1.40;;;15.67;100.00;95353.86;646825;212;32029;-71
2022/08/04 02:57:49;;;;;;;1.23;0.62;;;14.10;1.40;;;15.51;100.00;95351.94;646862;216;31537;-69
2022/08/04 03:00:28;;;;;;;0.80;0.80;;;14.00;1.40;;;15.49;100.00;95355.20;645897;216;31529;-69
2022/08/04 03:03:31;;;;;;;1.55;0.70;;;13.90;1.40;;;15.44;100.00;95350.56;646394;216;32364;-70
2022/08/04 03:06:52;;;;;;;1.10;0.93;;;14.00;1.40;;;15.42;100.00;95345.50;647201;216;31514;-71
2022/08/04 03:12:28;;;;;;;0.65;0.60;;;14.30;1.40;;;15.53;100.00;95335.53;619174;222;32088;-70
2022/08/04 03:15:28;;;;;;;1.30;1.10;;;14.30;1.40;;;15.66;100.00;95338.76;618590;222;31987;-71
2022/08/04 03:18:38;;;;;;;1.80;1.00;;;14.40;1.40;;;15.73;100.00;95343.09;645786;216;31521;-69
2022/08/04 03:21:42;;;;;;;1.40;0.87;;;14.30;1.40;;;15.73;100.00;95336.77;646304;216;31469;-71
2022/08/04 03:25:00;;;;;;;1.10;0.68;;;14.30;1.40;;;15.69;100.00;95343.22;645650;216;31616;-69
2022/08/04 03:28:03;;;;;;;0.50;0.50;;;14.40;1.40;;;15.71;100.00;95343.64;646997;216;31527;-71
2022/08/04 03:35:57;;;;;;;0.70;0.70;;;14.30;1.40;;;15.74;100.00;95312.72;646970;216;31815;-70
2022/08/04 03:38:48;;;;;;;1.33;0.93;;;14.20;1.40;;;15.75;100.00;95319.45;646404;216;31583;-70
2022/08/04 03:41:48;;;;;;;1.17;1.08;;;14.20;1.40;;;15.77;100.00;95321.11;645537;216;31550;-70
2022/08/04 03:44:47;;;;;;;1.12;0.80;;;14.20;1.40;;;15.78;100.00;95319.85;646031;216;31703;-70
2022/08/04 03:47:36;;;;;;;0.73;0.70;;;14.20;1.40;;;15.79;100.00;95319.16;646852;216;31536;-70
2022/08/04 03:50:43;;;;;;;1.40;0.90;;;14.20;1.40;;;15.76;100.00;95318.31;646839;216;31582;-71
2022/08/04 03:53:36;;;;;;;0.80;0.60;;;14.20;1.40;;;15.75;100.00;95317.61;646251;216;33042;-70
2022/08/04 03:56:35;;;;;;;0.70;0.70;;;14.20;1.40;;;15.67;100.00;95318.84;646000;212;32650;-70
2022/08/04 03:59:33;;;;;;;1.00;0.62;;;14.20;1.40;;;15.74;100.00;95320.63;645487;212;31488;-70
2022/08/04 04:02:34;;;;;;;1.00;0.90;;;14.40;1.40;;;15.84;100.00;95318.58;645489;212;31487;-72
2022/08/04 04:05:39;;;;;;;1.90;1.10;;;14.60;1.40;;;15.85;100.00;95318.75;617200;226;31833;-71
2022/08/04 04:08:41;;;;;;;5.07;1.25;;;14.40;1.40;;;15.87;100.00;95317.54;647133;212;31482;-70
2022/08/04 04:14:41;;;;;;;1.10;1.00;;;14.60;1.40;;;16.08;100.00;95323.38;645105;216;31703;-70
2022/08/04 04:17:36;;;;;;;0.70;0.70;;;14.80;1.40;;;16.09;100.00;95321.37;647096;216;31495;-70
2022/08/04 04:20:31;;;;;;;1.70;0.82;;;14.60;1.40;;;16.11;100.00;95326.84;645020;216;31482;-70
2022/08/04 04:23:27;;;;;;;1.60;1.50;;;14.60;1.40;;;16.13;100.00;95326.24;645712;216;31520;-70
2022/08/04 04:26:24;;;;;;;0.77;0.77;;;14.50;1.40;;;16.12;100.00;95331.94;646616;212;31548;-70
2022/08/04 04:36:03;;;;;;;1.05;0.82;;;14.30;1.40;;;16.05;100.00;95335.16;645885;216;31560;-70
2022/08/04 04:39:01;;;;;;;3.85;1.00;;;14.30;1.40;;;16.07;100.00;95335.19;646503;212;31527;-70
2022/08/04 04:44:53;;;;;;;1.80;1.08;;;14.50;1.40;;;16.24;100.00;95335.77;617494;225;31851;-70
2022/08/04 04:47:39;;;;;;;1.12;1.02;;;14.70;1.40;;;16.31;100.00;95342.50;646876;212;31575;-71
2022/08/04 04:50:45;;;;;;;2.72;1.50;;;14.80;1.40;;;16.37;100.00;95342.30;645761;212;31682;-70
2022/08/04 04:53:29;;;;;;;1.40;1.10;;;14.80;1.40;;;16.51;100.00;95347.73;646640;216;42909;-70
2022/08/04 04:56:12;;;;;;;1.30;1.10;;;14.90;1.40;;;16.60;100.00;95346.18;646526;216;31638;-71
2022/08/04 04:58:53;;;;;;;0.80;0.73;;;14.90;1.40;;;16.69;100.00;95350.17;646466;216;31515;-71
2022/08/04 05:01:57;;;;;;;0.98;0.80;;;15.00;1.40;;;16.71;100.00;95347.96;645314;216;31491;-70
2022/08/04 05:05:06;;;;;;;1.20;0.93;;;15.00;1.40;;;16.84;100.00;95348.64;646115;216;31538;-70
2022/08/04 05:07:56;;;;;;;0.98;0.85;;;15.20;1.40;;;17.10;100.00;95344.45;644927;212;31506;-70
2022/08/04 05:10:52;;;;;;;1.30;1.20;;;15.50;1.40;;;17.19;100.00;95346.13;647384;216;31945;-70
2022/08/04 05:13:34;;;;;;;1.10;1.00;;;15.60;1.40;;;17.29;100.00;95345.43;645691;216;32670;-69
2022/08/04 05:16:24;;;;;;;4.45;1.20;;;15.70;1.40;;;17.49;100.00;95346.26;645519;212;31501;-69
2022/08/04 05:19:26;;;;;;;1.45;1.35;;;16.10;1.40;;;17.64;100.00;95344.53;647316;212;31584;-70
2022/08/04 05:22:09;;;;;;;5.40;1.25;;;16.20;1.40;;;17.81;100.00;95343.77;646065;216;33034;-69
2022/08/04 05:24:52;;;;;;;1.12;1.00;;;16.30;1.40;;;17.96;100.00;95343.61;630906;222;31759;-70
2022/08/04 05:27:34;;;;;;;2.00;1.20;;;16.60;1.40;;;18.09;100.00;95340.82;646898;216;31688;-70
2022/08/04 05:30:16;;;;;;;2.00;1.60;;;16.80;1.40;;;18.26;100.00;95345.67;645614;216;31615;-70
2022/08/04 05:32:59;;;;;;;1.60;1.50;;;16.80;1.40;;;18.37;100.00;95344.31;645234;216;31903;-70
2022/08/04 05:35:52;;;;;;;6.90;1.62;;;16.80;1.40;;;18.41;100.00;95344.50;647612;216;31490;-72
2022/08/04 05:38:37;;;;;;;1.50;1.40;;;16.80;1.40;;;18.58;100.00;95344.83;645573;216;31600;-70
2022/08/04 05:41:19;;;;;;;5.07;2.20;;;17.00;1.40;;;18.79;100.00;95341.17;631941;222;31723;-70
2022/08/04 05:44:00;;;;;;;2.55;1.40;;;17.30;1.40;;;18.98;100.00;95340.66;646104;212;31603;-71
2022/08/04 05:46:46;;;;;;;1.60;1.20;;;17.60;1.40;;;19.21;100.00;95344.13;645992;216;31622;-70
2022/08/04 05:49:27;;;;;;;1.33;1.15;;;17.90;1.40;;;19.43;100.00;95343.78;646086;212;42156;-70
2022/08/04 05:52:08;;;;;;;1.55;1.45;;;18.20;1.40;;;19.65;100.00;95346.66;646096;216;31532;-70
2022/08/04 05:54:51;;;;;;;1.20;1.00;;;18.40;1.40;;;19.81;100.00;95348.50;646192;216;31481;-70
2022/08/04 05:57:32;;;;;;;2.00;1.80;;;18.50;1.40;;;19.97;100.00;95349.38;646874;216;31602;-69
2022/08/04 06:00:16;;;;;;;1.92;1.48;;;18.50;1.40;;;19.89;100.00;95348.83;619692;226;31854;-69
2022/08/04 06:02:57;;;;;;;3.80;1.60;;;18.10;1.40;;;19.70;100.00;95345.41;646370;216;31511;-69
2022/08/04 06:05:42;;;;;;;1.70;1.60;;;18.10;1.40;;;19.32;100.00;95341.33;647350;216;31602;-68
2022/08/04 06:08:24;;;;;;;1.45;1.35;;;17.80;1.40;;;19.08;100.00;95339.11;619442;226;31857;-69
2022/08/04 06:11:05;;;;;;;1.50;1.40;;;17.30;1.40;;;19.05;100.00;95336.31;645853;216;31524;-68
2022/08/04 06:13:51;;;;;;;1.90;1.10;;;17.20;1.40;;;19.09;100.00;95333.34;646141;216;42141;-69
2022/08/04 06:16:37;;;;;;;1.75;1.48;;;17.30;1.40;;;19.24;100.00;95331.99;647101;216;31870;-70
2022/08/04 06:19:19;;;;;;;1.40;1.10;;;17.40;1.40;;;19.31;100.00;95332.42;646840;216;31503;-69
2022/08/04 06:22:00;;;;;;;1.02;1.02;;;17.50;1.40;;;19.47;100.00;95335.72;645266;216;31786;-68
2022/08/04 06:24:42;;;;;;;2.37;1.65;;;17.60;1.40;;;19.72;100.00;95335.39;645236;212;32102;-69
2022/08/04 06:27:23;;;;;;;2.03;1.62;;;17.80;1.40;;;19.85;100.00;95334.24;646256;212;32321;-68
2022/08/04 06:30:10;;;;;;;1.27;1.10;;;18.00;1.40;;;20.05;100.00;95340.08;646642;212;42186;-69
2022/08/04 06:35:52;;;;;;;3.12;1.77;;;18.50;1.40;;;20.36;100.00;95340.20;645571;216;31727;-69
2022/08/04 06:39:31;;;;;;;2.70;2.05;;;19.00;1.40;;;20.55;100.00;95341.66;647240;216;31625;-70
2022/08/04 06:42:13;;;;;;;1.05;0.95;;;19.20;1.40;;;20.83;100.00;95341.09;644894;212;34436;-69
2022/08/04 06:45:01;;;;;;;1.70;1.40;;;19.30;1.40;;;20.97;100.00;95341.61;645621;216;31535;-73
2022/08/04 06:50:19;;;;;;;1.87;1.77;;;20.00;1.40;;;21.10;100.00;95340.42;646189;212;31553;-69
2022/08/04 06:53:01;;;;;;;5.78;1.98;;;20.20;1.40;;;21.38;100.00;95340.70;646056;216;31564;-70
2022/08/04 06:55:42;;;;;;;2.47;2.08;;;20.40;1.40;;;21.58;100.00;95342.41;617954;226;32126;-70
2022/08/04 06:58:24;;;;;;;2.17;1.98;;;20.60;1.40;;;21.68;100.00;95347.67;646608;216;31548;-70
2022/08/04 07:01:08;;;;;;;3.65;2.00;;;20.90;1.40;;;21.97;100.00;95353.45;645652;216;32143;-69
2022/08/04 07:03:53;;;;;;;1.87;1.50;;;21.00;1.40;;;22.27;100.00;95354.61;646396;212;31586;-69
2022/08/04 07:06:34;;;;;;;2.90;1.70;;;21.20;1.40;;;22.71;100.00;95358.21;619243;223;31932;-69
2022/08/04 07:09:16;;;;;;;2.85;2.47;;;21.70;1.40;;;23.14;100.00;95360.59;647451;212;31717;-69
2022/08/04 07:11:58;;;;;;;1.62;1.52;;;21.90;1.40;;;23.35;100.00;95356.86;648036;216;31686;-70
2022/08/04 07:14:40;;;;;;;2.90;2.03;;;22.00;1.40;;;23.53;100.00;95354.13;647778;216;31583;-69
2022/08/04 07:17:21;;;;;;;2.15;1.92;;;22.00;1.40;;;23.85;100.00;95358.11;647944;216;31543;-71
2022/08/04 07:20:04;;;;;;;2.17;1.98;;;22.20;1.40;;;23.91;100.00;95357.91;648355;212;31686;-70
2022/08/04 07:23:41;;;;;;;1.98;1.73;;;22.20;1.40;;;24.15;100.00;95357.39;646029;216;31669;-70
2022/08/04 07:26:24;;;;;;;1.30;1.20;;;22.30;1.40;;;24.37;100.00;95357.76;646082;212;31653;-70
2022/08/04 07:29:09;;;;;;;2.10;1.90;;;22.60;1.40;;;24.47;100.00;95354.41;617982;226;32050;-70
2022/08/04 07:31:50;;;;;;;2.28;1.92;;;22.60;1.40;;;24.66;100.00;95357.17;645945;216;42529;-70
2022/08/04 07:35:52;;;;;;;3.60;2.20;;;22.70;1.40;;;24.79;100.00;95358.66;646646;216;31739;-70
2022/08/04 07:38:33;;;;;;;2.90;1.77;;;22.90;1.40;;;24.97;100.00;95362.48;646451;216;43075;-69
2022/08/04 07:41:15;;;;;;;3.78;1.87;;;23.00;1.40;;;25.00;100.00;95360.90;646498;212;31543;-70
2022/08/04 07:43:57;;;;;;;3.85;1.62;;;23.00;1.40;;;25.08;100.00;95366.28;646671;212;31592;-70
2022/08/04 07:46:42;;;;;;;2.95;2.00;;;22.90;1.40;;;25.31;100.00;95361.38;647954;212;31533;-70
2022/08/04 07:49:25;;;;;;;2.43;1.67;;;23.30;1.40;;;25.35;100.00;95359.91;645678;216;31570;-70
2022/08/04 07:52:08;;;;;;;1.80;1.70;;;23.30;1.40;;;25.50;100.00;95357.21;646103;216;31685;-71
2022/08/04 07:54:50;;;;;;;3.05;1.80;;;23.50;1.40;;;25.68;100.00;95360.48;646223;212;31807;-71
2022/08/04 07:57:35;;;;;;;2.12;2.03;;;23.60;1.40;;;25.86;100.00;95352.17;646098;212;31592;-69
2022/08/04 08:00:18;;;;;;;3.60;1.85;;;23.50;1.40;;;26.06;100.00;95352.83;646864;216;31909;-70
2022/08/04 08:03:00;;;;;;;1.98;1.87;;;23.80;1.40;;;26.24;100.00;95348.89;647495;216;31620;-69
2022/08/04 08:05:42;;;;;;;1.80;1.70;;;24.20;1.40;;;26.27;100.00;95354.20;645476;216;42727;-69
2022/08/04 08:08:27;;;;;;;4.18;1.70;;;24.00;1.40;;;26.32;100.00;95356.94;644325;212;31555;-70
2022/08/04 08:11:08;;;;;;;2.22;2.03;;;24.20;1.40;;;26.36;100.00;95354.17;647592;216;32100;-70
2022/08/04 08:13:50;;;;;;;2.08;1.87;;;24.40;1.40;;;26.58;98.70;95353.52;646425;216;31720;-70
2022/08/04 08:16:32;;;;;;;2.70;1.90;;;24.80;1.40;;;26.60;99.18;95356.22;635729;212;32504;-70
2022/08/04 08:19:13;;;;;;;1.90;1.70;;;25.00;1.40;;;26.88;98.95;95353.80;617987;226;31930;-71
2022/08/04 08:21:55;;;;;;;3.33;1.98;;;25.20;1.40;;;27.10;100.00;95355.23;646740;216;31561;-70
2022/08/04 08:24:37;;;;;;;2.20;2.00;;;25.40;1.40;;;27.15;99.52;95355.92;618721;226;31916;-70
2022/08/04 08:27:19;;;;;;;1.50;1.30;;;25.60;1.40;;;27.47;100.00;95360.22;649202;212;31583;-70
2022/08/04 08:30:05;;;;;;;1.90;1.40;;;25.90;1.40;;;27.67;97.71;95358.61;644895;212;42179;-71
2022/08/04 08:32:46;;;;;;;2.30;2.10;;;26.30;1.40;;;27.79;94.72;95354.23;618913;222;32853;-70
2022/08/04 08:36:23;;;;;;;2.08;1.80;;;26.50;1.40;;;27.95;96.15;95354.23;647913;216;31583;-70
2022/08/04 08:39:06;;;;;;;2.40;2.20;;;26.40;1.40;;;28.11;96.83;95352.27;645966;216;31714;-70
2022/08/04 08:42:08;;;;;;;2.58;1.90;;;26.50;1.40;;;28.36;94.79;95351.47;645622;216;42789;-70
2022/08/04 08:45:45;;;;;;;4.10;2.25;;;26.70;1.40;;;28.30;94.18;95352.61;646990;216;31650;-70
2022/08/04 08:48:55;;;;;;;2.30;2.10;;;26.90;1.40;;;28.31;91.47;95352.03;646929;212;32166;-70
2022/08/04 08:54:18;;;;;;;2.25;2.03;;;26.80;1.40;;;28.32;89.35;95350.85;646479;212;31646;-70
2022/08/04 08:57:29;;;;;;;2.25;2.05;;;26.90;1.40;;;28.83;89.90;95354.58;646860;216;42313;-70
2022/08/04 09:03:05;;;;;;;2.17;1.98;;;27.80;1.40;;;29.53;86.45;95352.29;646981;216;32160;-69
2022/08/04 09:05:57;;;;;;;1.83;1.73;;;28.30;1.40;;;29.76;82.49;95352.00;645670;212;31897;-70
2022/08/04 09:09:29;;;;;;;2.20;2.00;;;28.20;1.40;;;30.07;82.47;95356.06;617372;226;42988;-70
2022/08/04 09:12:20;;;;;;;4.10;2.40;;;28.80;1.40;;;30.50;80.62;95353.69;646979;216;31537;-70
2022/08/04 09:15:07;;;;;;;3.10;2.40;;;29.10;1.40;;;30.45;80.37;95356.02;614562;226;32249;-70
2022/08/04 09:17:50;;;;;;;2.45;2.08;;;29.00;1.40;;;30.80;77.99;95353.00;647590;216;31569;-70
2022/08/04 09:20:40;;;;;;;1.70;1.60;;;29.50;1.40;;;31.68;71.02;95346.57;618219;222;33915;-70
2022/08/04 09:23:27;;;;;;;2.78;2.10;;;32.10;1.40;;;33.36;65.34;95344.77;646386;216;31567;-70
2022/08/04 09:26:23;;;;;;;2.10;1.90;;;35.10;1.40;;;34.21;60.22;95342.94;646711;216;31535;-70
2022/08/04 09:29:20;;;;;;;1.90;1.80;;;35.90;1.40;;;34.53;58.23;95344.38;646017;216;31618;-71
2022/08/04 09:32:16;;;;;;;1.70;1.60;;;36.00;1.40;;;36.34;53.16;95339.55;618570;222;32529;-70
2022/08/04 09:37:13;;;;;;;1.60;1.50;;;37.70;1.40;;;38.02;52.15;95334.81;647555;216;35160;-70
2022/08/04 09:40:02;;;;;;;1.62;1.50;;;37.20;1.40;;;38.49;44.87;95334.47;646759;216;40544;-70
2022/08/04 09:42:57;;;;;;;1.70;1.60;;;38.20;1.40;;;40.14;47.10;95337.38;646913;216;31808;-71
2022/08/04 09:45:38;;;;;;;1.70;1.60;;;38.50;1.40;;;41.15;45.05;95332.71;646017;216;42304;-71
2022/08/04 09:48:23;;;;;;;2.23;1.80;;;39.30;1.40;;;42.01;43.36;95332.52;645776;216;42393;-71
2022/08/04 09:51:04;;;;;;;1.90;1.80;;;39.40;1.40;;;40.49;39.61;95334.44;646770;216;31613;-71
2022/08/04 09:53:53;;;;;;;1.90;1.80;;;37.30;1.40;;;41.13;44.56;95324.85;646305;216;31518;-72
2022/08/04 09:56:38;;;;;;;1.80;1.70;;;39.00;99.90;;;42.41;44.71;95321.34;646046;216;31595;-72
2022/08/04 09:59:26;;;;;;;3.20;1.97;;;38.50;99.90;;;42.73;39.50;95323.61;646738;216;31623;-69
2022/08/04 10:02:08;;;;;;;2.30;1.60;;;39.50;99.90;;;42.63;40.83;95321.39;646721;216;31525;-69
2022/08/04 10:04:50;;;;;;;3.93;1.33;;;39.10;99.90;;;42.68;38.90;95318.66;645597;212;42780;-71
2022/08/04 10:08:03;;;;;;;2.60;1.90;;;39.50;99.90;;;42.77;36.33;95321.36;646427;216;31627;-72
2022/08/04 10:11:06;;;;;;;5.30;1.80;;;39.50;99.90;;;42.82;38.84;95321.17;646734;216;31592;-71
2022/08/04 10:14:02;;;;;;;1.97;1.87;;;39.70;99.90;;;40.47;36.18;95323.74;646728;216;31624;-71
2022/08/04 10:17:01;;;;;;;2.13;1.93;;;36.20;99.90;;;39.10;37.50;95328.01;646547;216;31555;-70
2022/08/04 10:19:43;;;;;;;1.90;1.80;;;34.60;99.90;;;40.37;38.30;95325.95;646486;216;31531;-71
2022/08/04 10:22:27;;;;;;;1.70;1.60;;;37.60;1.40;;;41.95;35.52;95315.55;645325;212;31549;-70
2022/08/04 10:25:38;;;;;;;2.10;1.60;;;38.10;99.90;;;42.43;34.71;95313.09;646338;212;31537;-69
2022/08/04 10:28:19;;;;;;;1.50;1.40;;;38.60;99.90;;;38.53;38.64;95325.12;618878;226;31983;-70
2022/08/04 10:31:01;;;;;;;1.60;1.50;;;37.50;99.90;;;41.12;37.25;95318.42;645947;212;31571;-70
2022/08/04 10:35:56;;;;;;;3.83;1.80;;;38.20;1.40;;;39.31;37.59;95324.52;645274;216;31599;-71
2022/08/04 10:38:39;;;;;;;1.50;1.40;;;36.90;1.40;;;41.62;35.69;95314.41;646205;216;31499;-71
2022/08/04 10:41:27;;;;;;;1.60;1.50;;;39.10;99.90;;;40.93;35.11;95309.31;647056;213;31632;-70
2022/08/04 10:44:24;;;;;;;2.00;1.50;;;38.30;99.90;;;40.97;37.09;95308.24;646033;212;31579;-69
2022/08/04 10:47:07;;;;;;;1.60;1.50;;;37.70;99.90;;;42.75;37.37;95307.52;617833;226;32508;-71
2022/08/04 10:49:59;;;;;;;4.50;1.90;;;38.80;1.40;;;45.80;33.71;95293.02;645322;216;31586;-70
2022/08/04 10:52:44;;;;;;;3.30;1.60;;;40.80;99.90;;;43.66;32.54;95300.75;645595;216;31517;-71
2022/08/04 10:58:01;;;;;;;1.80;1.70;;;37.30;99.90;;;41.68;34.92;95304.99;647461;216;31607;-71
2022/08/04 11:00:42;;;;;;;1.80;1.70;;;38.60;99.90;;;43.73;33.50;95300.95;645673;212;31602;-71
2022/08/04 11:03:30;;;;;;;1.80;1.70;;;39.60;99.90;;;45.13;33.27;95296.75;646696;216;31637;-70
2022/08/04 11:06:14;;;;;;;1.40;1.30;;;40.90;99.90;;;44.65;33.32;95293.59;645673;216;31668;-71
2022/08/04 11:08:56;;;;;;;1.70;1.60;;;39.80;99.90;;;42.65;32.29;95297.05;646475;216;31920;-71
2022/08/04 11:11:54;;;;;;;2.50;1.40;;;37.60;99.90;;;42.65;32.77;95295.97;645719;212;35495;-71
2022/08/04 11:14:39;;;;;;;2.47;1.30;;;37.50;99.90;;;44.03;32.38;95297.75;644781;216;31832;-71
2022/08/04 11:17:24;;;;;;;1.80;1.70;;;38.70;99.90;;;46.27;31.67;95284.24;646445;212;31567;-70
2022/08/04 11:20:22;;;;;;;2.15;1.42;;;40.90;99.90;;;45.89;29.84;95281.33;645682;216;42719;-71
2022/08/04 11:25:50;;;;;;;2.00;1.30;;;40.20;99.90;;;43.70;33.15;95287.22;645889;212;32228;-69
2022/08/04 11:28:44;;;;;;;1.95;1.85;;;38.40;99.90;;;44.51;32.65;95282.39;646109;216;31523;-69
2022/08/04 11:31:26;;;;;;;1.30;1.30;;;39.10;99.90;;;43.51;33.17;95285.36;618490;222;32370;-69
2022/08/04 11:35:52;;;;;;;2.40;1.42;;;37.40;99.90;;;44.32;32.46;95282.31;645424;216;31761;-70
2022/08/04 11:38:44;;;;;;;3.85;1.90;;;38.50;99.90;;;44.38;32.11;95283.21;645767;216;33173;-70
2022/08/04 11:41:42;;;;;;;1.90;1.80;;;39.50;99.90;;;46.16;31.26;95276.23;646134;216;33583;-69
2022/08/04 11:44:28;;;;;;;1.70;1.60;;;40.30;99.90;;;48.04;30.25;95272.19;646299;216;31608;-71
2022/08/04 11:47:29;;;;;;;1.50;1.40;;;42.10;99.90;;;47.50;29.33;95270.27;646308;216;32001;-70
2022/08/04 11:50:12;;;;;;;1.40;1.30;;;40.80;99.90;;;46.94;28.94;95275.19;647714;216;39574;-69
2022/08/04 11:52:55;;;;;;;3.20;1.40;;;40.80;99.90;;;46.76;28.77;95272.02;646093;212;32226;-69
2022/08/04 11:55:37;;;;;;;1.40;1.30;;;39.60;99.90;;;47.63;28.17;95272.15;629954;222;42406;-69
2022/08/04 11:58:17;;;;;;;1.95;1.50;;;40.00;99.90;;;46.99;27.35;95270.48;646542;216;34084;-70
2022/08/04 12:01:20;;;;;;;1.30;1.20;;;40.00;99.90;;;46.11;28.89;95268.66;647150;216;31617;-69
2022/08/04 12:06:44;;;;;;;2.50;1.50;;;39.00;99.90;;;43.85;29.44;95276.34;646112;214;42824;-71
2022/08/04 12:09:36;;;;;;;1.92;1.27;;;38.80;99.90;;;43.70;29.67;95273.08;646312;212;31551;-70
2022/08/04 12:12:26;;;;;;;1.80;1.70;;;38.60;99.90;;;44.51;29.58;95272.10;646257;216;31624;-69
2022/08/04 12:15:22;;;;;;;1.50;1.40;;;39.00;99.90;;;44.06;30.83;95271.87;646809;216;31771;-70
2022/08/04 12:18:18;;;;;;;1.60;1.50;;;38.80;1.40;;;44.59;28.73;95267.95;645794;216;31558;-69
2022/08/04 12:21:00;;;;;;;2.80;1.95;;;38.60;1.40;;;43.67;28.95;95272.91;646330;216;32128;-71
2022/08/04 12:23:42;;;;;;;1.40;1.30;;;38.40;99.90;;;44.15;29.51;95270.23;630248;222;32016;-71
2022/08/04 12:26:23;;;;;;;1.92;1.80;;;39.00;99.90;;;43.60;29.73;95272.77;645717;216;31562;-71
2022/08/04 12:29:05;;;;;;;1.60;1.50;;;38.70;99.90;;;44.13;29.52;95278.69;647156;216;31540;-70
2022/08/04 12:31:52;;;;;;;3.30;1.37;;;38.70;99.90;;;45.49;28.09;95266.62;647408;212;32176;-71
2022/08/04 12:35:52;;;;;;;1.87;1.50;;;39.80;1.40;;;47.70;28.01;95258.70;619514;225;42640;-71
2022/08/04 12:38:33;;;;;;;1.50;1.40;;;40.20;99.90;;;44.79;28.21;95271.59;646492;215;31540;-70
2022/08/04 12:41:15;;;;;;;1.80;1.70;;;38.90;99.90;;;44.16;29.05;95275.81;645776;216;31555;-70
2022/08/04 12:44:03;;;;;;;1.67;1.57;;;38.60;99.90;;;43.36;30.07;95270.84;647601;216;31551;-70
2022/08/04 12:46:44;;;;;;;2.60;1.20;;;38.10;99.90;;;44.06;29.27;95270.00;646249;216;31536;-70
2022/08/04 12:49:26;;;;;;;1.50;1.40;;;38.90;99.90;;;46.10;27.79;95261.41;645440;216;31602;-72